createdAt,value
2019-02-17T00:01:13.734Z,22.75
2019-02-17T00:02:18.718Z,26.75
2019-02-17T00:03:23.353Z,22.75
2019-02-17T00:04:26.290Z,27.25
2019-02-17T00:05:30.212Z,24.25
2019-02-17T00:06:35.807Z,29.25
2019-02-17T00:07:39.208Z,24.75
2019-02-17T00:08:42.703Z,26.75
2019-02-17T00:09:45.919Z,29.25
2019-02-17T00:10:49.344Z,28.25
2019-02-17T00:11:52.772Z,27.25
2019-02-17T00:12:55.716Z,34.75
2019-02-17T00:14:06.478Z,35.25
2019-02-17T00:15:08.967Z,35.75
2019-02-17T00:16:12.338Z,33.75
2019-02-17T00:17:15.136Z,33.25
2019-02-17T00:18:20.493Z,29.75
2019-02-17T00:19:24.533Z,34.25
2019-02-17T00:20:30.775Z,27.25
2019-02-17T00:21:34.126Z,27.00
2019-02-17T00:22:37.315Z,31.75
2019-02-17T00:23:40.575Z,29.25
2019-02-17T00:24:44.104Z,35.75
2019-02-17T00:25:57.663Z,34.75
2019-02-17T00:26:51.838Z,32.75
2019-02-17T00:27:55.654Z,28.75
2019-02-17T00:28:59.816Z,25.00
2019-02-17T00:30:04.325Z,27.00
2019-02-17T00:31:07.989Z,25.50
2019-02-17T00:32:11.156Z,27.75
2019-02-17T00:33:14.025Z,28.25
2019-02-17T00:34:17.197Z,23.00
2019-02-17T00:35:20.650Z,26.00
2019-02-17T00:36:24.305Z,26.50
2019-02-17T00:37:27.482Z,30.00
2019-02-17T00:38:35.711Z,31.75
2019-02-17T00:39:39.107Z,31.00
2019-02-17T00:40:42.163Z,29.50
2019-02-17T00:41:50.419Z,25.50
2019-02-17T00:42:56.278Z,28.50
2019-02-17T00:43:59.135Z,24.50
2019-02-17T00:45:02.019Z,25.50
2019-02-17T00:46:04.876Z,26.00
2019-02-17T00:47:09.536Z,24.00
2019-02-17T00:48:19.030Z,25.50
2019-02-17T00:49:22.307Z,24.25
2019-02-17T00:50:25.492Z,23.00
2019-02-17T00:51:30.447Z,23.50
2019-02-17T00:52:34.005Z,23.50
2019-02-17T00:53:36.981Z,24.00
2019-02-17T00:54:40.367Z,23.00
2019-02-17T00:55:46.373Z,22.50
2019-02-17T00:56:55.597Z,23.00
2019-02-17T00:57:58.429Z,21.50
2019-02-17T00:59:09.559Z,23.00
2019-02-17T01:00:06.300Z,25.25
2019-02-17T01:01:09.597Z,25.50
2019-02-17T01:02:12.511Z,25.00
2019-02-17T01:03:15.499Z,25.00
2019-02-17T01:04:19.117Z,25.00
2019-02-17T01:05:22.014Z,25.00
2019-02-17T01:06:26.785Z,27.00
2019-02-17T01:07:29.944Z,25.00
2019-02-17T01:08:32.925Z,25.25
2019-02-17T01:09:35.991Z,24.25
2019-02-17T01:10:38.863Z,25.75
2019-02-17T01:11:42.028Z,23.25
2019-02-17T01:12:45.285Z,25.25
2019-02-17T01:13:48.544Z,23.25
2019-02-17T01:14:51.364Z,20.75
2019-02-17T01:15:57.867Z,25.25
2019-02-17T01:17:00.813Z,21.75
2019-02-17T01:18:03.958Z,21.75
2019-02-17T01:19:07.256Z,26.25
2019-02-17T01:20:12.129Z,23.75
2019-02-17T01:21:17.617Z,23.75
2019-02-17T01:22:21.038Z,24.25
2019-02-17T01:23:25.410Z,23.75
2019-02-17T01:24:29.941Z,21.75
2019-02-17T01:25:33.238Z,25.75
2019-02-17T01:26:36.781Z,21.75
2019-02-17T01:27:39.630Z,21.75
2019-02-17T01:28:42.479Z,26.75
2019-02-17T01:29:48.443Z,24.25
2019-02-17T01:30:51.815Z,24.25
2019-02-17T01:31:55.925Z,25.75
2019-02-17T01:32:59.171Z,25.75
2019-02-17T01:34:01.992Z,24.75
2019-02-17T01:35:04.979Z,27.75
2019-02-17T01:36:12.307Z,24.75
2019-02-17T01:37:15.640Z,28.00
2019-02-17T01:38:21.091Z,26.75
2019-02-17T01:39:25.682Z,24.50
2019-02-17T01:40:30.806Z,25.00
2019-02-17T01:41:38.988Z,25.75
2019-02-17T01:42:42.085Z,27.00
2019-02-17T01:43:44.918Z,26.00
2019-02-17T01:44:48.035Z,24.00
2019-02-17T01:45:51.191Z,21.50
2019-02-17T01:46:54.231Z,24.00
2019-02-17T01:47:59.525Z,23.50
2019-02-17T01:49:03.600Z,24.00
2019-02-17T01:50:06.534Z,22.00
2019-02-17T01:51:10.077Z,21.00
2019-02-17T01:52:12.896Z,21.50
2019-02-17T01:53:15.731Z,25.25
2019-02-17T01:54:18.756Z,22.50
2019-02-17T01:55:21.676Z,22.00
2019-02-17T01:56:24.745Z,22.00
2019-02-17T01:57:28.692Z,25.00
2019-02-17T01:58:31.749Z,22.00
2019-02-17T01:59:34.775Z,21.50
2019-02-17T02:00:37.655Z,20.00
2019-02-17T02:01:40.816Z,21.50
2019-02-17T02:02:43.704Z,23.00
2019-02-17T02:03:46.852Z,20.50
2019-02-17T02:04:49.747Z,21.00
2019-02-17T02:05:53.698Z,22.00
2019-02-17T02:06:56.656Z,22.00
2019-02-17T02:08:01.418Z,26.00
2019-02-17T02:09:04.906Z,20.00
2019-02-17T02:10:07.903Z,23.00
2019-02-17T02:11:10.903Z,21.50
2019-02-17T02:12:14.213Z,22.00
2019-02-17T02:13:17.417Z,24.50
2019-02-17T02:14:20.423Z,20.50
2019-02-17T02:15:56.210Z,22.00
2019-02-17T02:16:50.521Z,22.00
2019-02-17T02:18:16.089Z,24.00
2019-02-17T02:19:21.770Z,19.00
2019-02-17T02:20:47.164Z,23.00
2019-02-17T02:21:54.461Z,24.00
2019-02-17T02:23:03.419Z,27.00
2019-02-17T02:24:06.464Z,24.50
2019-02-17T02:25:17.023Z,25.50
2019-02-17T02:26:19.983Z,25.00
2019-02-17T02:27:22.827Z,22.50
2019-02-17T02:28:35.277Z,26.50
2019-02-17T02:29:45.446Z,23.00
2019-02-17T02:30:56.103Z,20.00
2019-02-17T02:32:05.202Z,24.50
2019-02-17T02:33:11.590Z,22.50
2019-02-17T02:34:19.436Z,22.50
2019-02-17T02:35:30.550Z,22.50
2019-02-17T02:38:06.030Z,20.00
2019-02-17T02:39:08.832Z,21.00
2019-02-17T02:40:40.588Z,20.00
2019-02-17T02:41:48.460Z,18.00
2019-02-17T02:42:54.124Z,19.00
2019-02-17T02:43:56.915Z,22.00
2019-02-17T02:45:01.928Z,19.00
2019-02-17T02:46:07.539Z,18.00
2019-02-17T02:47:13.099Z,20.00
2019-02-17T02:48:15.910Z,21.50
2019-02-17T02:49:18.784Z,18.00
2019-02-17T02:50:21.532Z,19.00
2019-02-17T02:51:24.349Z,25.00
2019-02-17T02:52:27.438Z,23.00
2019-02-17T02:53:30.211Z,21.00
2019-02-17T02:54:33.067Z,25.00
2019-02-17T02:55:35.850Z,23.50
2019-02-17T02:56:38.724Z,20.50
2019-02-17T02:57:41.511Z,21.00
2019-02-17T02:58:45.059Z,20.50
2019-02-17T02:59:52.415Z,20.50
2019-02-17T03:00:52.301Z,18.00
2019-02-17T03:01:55.182Z,20.00
2019-02-17T03:02:57.968Z,22.00
2019-02-17T03:04:00.737Z,18.00
2019-02-17T03:05:03.860Z,22.50
2019-02-17T03:06:16.393Z,22.00
2019-02-17T03:07:21.086Z,18.00
2019-02-17T03:08:23.868Z,21.50
2019-02-17T03:09:26.686Z,25.00
2019-02-17T03:10:29.463Z,25.50
2019-02-17T03:11:33.779Z,21.00
2019-02-17T03:12:36.557Z,19.50
2019-02-17T03:13:39.343Z,23.00
2019-02-17T03:14:42.829Z,21.00
2019-02-17T03:15:48.106Z,23.00
2019-02-17T03:16:50.958Z,21.00
2019-02-17T03:17:54.052Z,23.00
2019-02-17T03:18:56.831Z,20.50
2019-02-17T03:19:59.622Z,27.50
2019-02-17T03:21:02.425Z,25.50
2019-02-17T03:22:05.658Z,23.50
2019-02-17T03:23:08.490Z,21.00
2019-02-17T03:24:11.559Z,24.00
2019-02-17T03:25:14.379Z,24.00
2019-02-17T03:26:17.181Z,17.50
2019-02-17T03:27:19.999Z,24.00
2019-02-17T03:28:22.774Z,22.00
2019-02-17T03:29:26.050Z,21.00
2019-02-17T03:30:30.294Z,22.00
2019-02-17T03:31:33.134Z,18.50
2019-02-17T03:32:37.025Z,20.00
2019-02-17T03:33:39.800Z,19.00
2019-02-17T03:34:42.580Z,17.50
2019-02-17T03:35:45.452Z,16.00
2019-02-17T03:36:48.599Z,20.00
2019-02-17T03:37:51.420Z,20.00
2019-02-17T03:38:54.213Z,22.00
2019-02-17T03:39:57.028Z,21.50
2019-02-17T03:40:59.791Z,19.50
2019-02-17T03:42:02.635Z,16.00
2019-02-17T03:43:05.717Z,18.00
2019-02-17T03:44:08.494Z,17.50
2019-02-17T03:45:11.285Z,25.00
2019-02-17T03:46:14.187Z,20.50
2019-02-17T03:47:16.990Z,25.00
2019-02-17T03:48:19.771Z,22.50
2019-02-17T03:49:25.506Z,24.50
2019-02-17T03:50:28.753Z,22.50
2019-02-17T03:51:31.595Z,21.00
2019-02-17T03:52:34.370Z,22.00
2019-02-17T03:53:37.174Z,20.00
2019-02-17T03:54:39.984Z,22.50
2019-02-17T03:55:43.078Z,19.50
2019-02-17T03:56:45.986Z,23.00
2019-02-17T03:57:48.859Z,22.50
2019-02-17T03:58:51.638Z,19.50
2019-02-17T03:59:54.515Z,20.00
2019-02-17T04:00:57.298Z,19.50
2019-02-17T04:02:00.438Z,19.50
2019-02-17T04:03:03.249Z,18.00
2019-02-17T04:04:06.047Z,18.00
2019-02-17T04:05:09.238Z,20.00
2019-02-17T04:06:12.036Z,29.00
2019-02-17T04:07:14.877Z,22.50
2019-02-17T04:08:17.947Z,16.50
2019-02-17T04:09:20.747Z,22.50
2019-02-17T04:10:23.554Z,19.50
2019-02-17T04:11:26.453Z,20.00
2019-02-17T04:12:29.226Z,22.00
2019-02-17T04:13:32.015Z,20.00
2019-02-17T04:14:35.092Z,24.00
2019-02-17T04:15:38.074Z,24.50
2019-02-17T04:16:41.089Z,23.00
2019-02-17T04:17:44.072Z,25.00
2019-02-17T04:18:46.867Z,22.50
2019-02-17T04:19:49.647Z,25.00
2019-02-17T04:20:52.753Z,22.50
2019-02-17T04:21:55.514Z,20.00
2019-02-17T04:22:58.367Z,17.00
2019-02-17T04:24:01.178Z,20.00
2019-02-17T04:25:04.384Z,18.00
2019-02-17T04:26:07.242Z,20.00
2019-02-17T04:27:10.345Z,17.50
2019-02-17T04:28:13.132Z,17.50
2019-02-17T04:29:15.945Z,18.00
2019-02-17T04:30:28.795Z,18.00
2019-02-17T04:31:23.247Z,21.00
2019-02-17T04:32:26.083Z,17.00
2019-02-17T04:33:29.180Z,17.50
2019-02-17T04:34:32.028Z,20.50
2019-02-17T04:35:35.177Z,17.00
2019-02-17T04:36:37.956Z,17.50
2019-02-17T04:37:40.744Z,19.50
2019-02-17T04:38:43.935Z,18.00
2019-02-17T04:39:47.146Z,20.00
2019-02-17T04:40:49.958Z,19.00
2019-02-17T04:41:52.772Z,19.50
2019-02-17T04:42:55.573Z,23.00
2019-02-17T04:43:58.784Z,22.00
2019-02-17T04:45:02.078Z,22.00
2019-02-17T04:46:05.148Z,20.50
2019-02-17T04:47:08.010Z,20.50
2019-02-17T04:48:10.810Z,20.00
2019-02-17T04:49:13.596Z,20.00
2019-02-17T04:50:16.481Z,19.50
2019-02-17T04:51:22.415Z,18.50
2019-02-17T04:52:25.506Z,16.50
2019-02-17T04:53:28.655Z,19.50
2019-02-17T04:54:31.430Z,19.00
2019-02-17T04:55:34.267Z,19.00
2019-02-17T04:56:37.081Z,18.00
2019-02-17T04:57:39.857Z,19.00
2019-02-17T04:58:43.015Z,17.50
2019-02-17T04:59:45.827Z,18.00
2019-02-17T05:00:50.006Z,16.50
2019-02-17T05:01:53.082Z,16.00
2019-02-17T05:02:57.288Z,16.00
2019-02-17T05:04:00.626Z,15.00
2019-02-17T05:05:03.737Z,18.00
2019-02-17T05:06:07.823Z,16.00
2019-02-17T05:07:10.618Z,18.00
2019-02-17T05:08:14.495Z,16.00
2019-02-17T05:09:20.347Z,17.50
2019-02-17T05:10:23.186Z,14.00
2019-02-17T05:11:26.296Z,14.50
2019-02-17T05:12:29.088Z,17.00
2019-02-17T05:13:31.853Z,18.50
2019-02-17T05:14:34.741Z,20.00
2019-02-17T05:15:37.958Z,18.00
2019-02-17T05:16:41.046Z,18.00
2019-02-17T05:17:43.867Z,20.00
2019-02-17T05:18:46.691Z,20.00
2019-02-17T05:19:49.991Z,21.50
2019-02-17T05:20:53.278Z,25.50
2019-02-17T05:21:56.208Z,22.50
2019-02-17T05:22:59.345Z,26.50
2019-02-17T05:24:02.185Z,21.50
2019-02-17T05:25:05.048Z,24.00
2019-02-17T05:26:07.856Z,22.50
2019-02-17T05:27:13.898Z,20.00
2019-02-17T05:28:16.701Z,18.00
2019-02-17T05:29:19.763Z,21.00
2019-02-17T05:30:22.527Z,20.00
2019-02-17T05:31:25.289Z,19.50
2019-02-17T05:32:28.164Z,20.00
2019-02-17T05:33:30.955Z,19.00
2019-02-17T05:34:33.756Z,18.00
2019-02-17T05:35:36.887Z,19.00
2019-02-17T05:36:39.696Z,17.50
2019-02-17T05:37:42.551Z,18.00
2019-02-17T05:38:45.355Z,17.50
2019-02-17T05:39:48.226Z,16.00
2019-02-17T05:40:51.095Z,18.50
2019-02-17T05:41:56.956Z,19.00
2019-02-17T05:42:59.822Z,16.50
2019-02-17T05:44:02.682Z,20.00
2019-02-17T05:45:05.464Z,20.00
2019-02-17T05:46:08.229Z,19.50
2019-02-17T05:47:11.045Z,19.00
2019-02-17T05:48:14.199Z,21.00
2019-02-17T05:49:17.210Z,17.50
2019-02-17T05:50:20.028Z,19.00
2019-02-17T05:51:22.820Z,21.50
2019-02-17T05:52:26.076Z,18.00
2019-02-17T05:53:29.402Z,20.00
2019-02-17T05:54:32.473Z,16.00
2019-02-17T05:55:35.290Z,16.00
2019-02-17T05:56:38.154Z,17.00
2019-02-17T05:57:41.088Z,18.50
2019-02-17T05:58:49.567Z,16.00
2019-02-17T05:59:52.326Z,17.00
2019-02-17T06:01:03.192Z,18.00
2019-02-17T06:02:00.034Z,16.00
2019-02-17T06:03:02.859Z,20.50
2019-02-17T06:04:05.635Z,18.00
2019-02-17T06:05:08.466Z,18.00
2019-02-17T06:06:11.254Z,19.00
2019-02-17T06:07:14.411Z,16.50
2019-02-17T06:08:17.221Z,18.00
2019-02-17T06:09:25.570Z,20.00
2019-02-17T06:10:28.444Z,18.00
2019-02-17T06:11:31.315Z,18.50
2019-02-17T06:12:34.162Z,18.00
2019-02-17T06:13:37.227Z,16.00
2019-02-17T06:14:40.057Z,19.00
2019-02-17T06:15:42.837Z,16.50
2019-02-17T06:16:45.694Z,15.50
2019-02-17T06:17:48.494Z,15.00
2019-02-17T06:18:51.304Z,18.00
2019-02-17T06:19:54.388Z,16.50
2019-02-17T06:20:57.163Z,17.00
2019-02-17T06:22:00.018Z,21.50
2019-02-17T06:23:03.187Z,17.50
2019-02-17T06:24:05.963Z,19.50
2019-02-17T06:25:09.241Z,16.50
2019-02-17T06:26:12.340Z,16.00
2019-02-17T06:27:15.172Z,18.00
2019-02-17T06:28:18.040Z,19.50
2019-02-17T06:29:20.844Z,16.00
2019-02-17T06:43:52.663Z,28.00
2019-02-17T06:44:55.501Z,24.75
2019-02-17T06:45:58.403Z,27.00
2019-02-17T06:47:03.328Z,24.00
2019-02-17T06:48:07.520Z,26.00
2019-02-17T06:49:10.801Z,23.75
2019-02-17T06:50:13.594Z,23.50
2019-02-17T06:51:16.424Z,24.00
2019-02-17T06:52:19.211Z,21.50
2019-02-17T06:53:21.989Z,21.50
2019-02-17T06:54:24.838Z,20.50
2019-02-17T06:55:53.188Z,16.50
2019-02-17T06:57:14.713Z,19.00
2019-02-17T06:58:17.509Z,17.50
2019-02-17T06:59:23.253Z,18.00
2019-02-17T07:00:32.218Z,20.00
2019-02-17T07:01:35.080Z,18.00
2019-02-17T07:02:38.160Z,24.00
2019-02-17T07:03:40.935Z,22.50
2019-02-17T07:05:02.574Z,26.00
2019-02-17T07:06:20.143Z,20.50
2019-02-17T07:07:23.092Z,23.50
2019-02-17T07:08:25.888Z,21.50
2019-02-17T07:09:30.334Z,20.00
2019-02-17T07:10:33.181Z,19.00
2019-02-17T07:11:36.014Z,22.00
2019-02-17T07:12:39.292Z,23.50
2019-02-17T07:13:42.179Z,18.50
2019-02-17T07:14:44.966Z,18.50
2019-02-17T07:15:48.572Z,20.00
2019-02-17T07:16:51.364Z,20.00
2019-02-17T07:17:54.260Z,19.50
2019-02-17T07:18:57.317Z,20.00
2019-02-17T07:20:00.315Z,17.50
2019-02-17T07:21:03.212Z,16.25
2019-02-17T07:22:06.308Z,17.75
2019-02-17T07:23:09.796Z,20.25
2019-02-17T07:24:12.614Z,17.75
2019-02-17T07:25:18.180Z,20.50
2019-02-17T07:26:23.258Z,18.25
2019-02-17T07:27:29.144Z,22.00
2019-02-17T07:28:32.313Z,21.25
2019-02-17T07:29:36.881Z,21.00
2019-02-17T07:30:39.641Z,21.75
2019-02-17T07:31:45.468Z,18.00
2019-02-17T07:32:49.670Z,22.75
2019-02-17T07:33:52.558Z,19.25
2019-02-17T07:34:59.776Z,19.25
2019-02-17T07:36:02.743Z,27.25
2019-02-17T07:37:05.623Z,27.75
2019-02-17T07:38:08.412Z,24.25
2019-02-17T07:39:11.204Z,24.50
2019-02-17T07:40:14.059Z,23.00
2019-02-17T07:41:17.256Z,24.75
2019-02-17T07:42:20.132Z,27.00
2019-02-17T07:43:23.004Z,28.00
2019-02-17T07:44:25.990Z,28.75
2019-02-17T07:45:28.789Z,27.50
2019-02-17T07:46:31.665Z,26.25
2019-02-17T07:47:35.265Z,22.50
2019-02-17T07:48:38.231Z,25.50
2019-02-17T07:49:43.846Z,26.00
2019-02-17T07:50:46.641Z,27.25
2019-02-17T07:51:49.453Z,26.50
2019-02-17T07:52:52.212Z,23.75
2019-02-17T07:53:57.990Z,22.25
2019-02-17T07:55:00.838Z,23.75
2019-02-17T07:56:06.341Z,24.00
2019-02-17T07:57:09.144Z,25.00
2019-02-17T07:58:12.001Z,25.50
2019-02-17T07:59:14.868Z,28.25
2019-02-17T08:00:20.144Z,29.75
2019-02-17T08:01:22.940Z,30.25
2019-02-17T08:02:25.737Z,31.00
2019-02-17T08:03:28.543Z,36.25
2019-02-17T08:04:31.429Z,36.50
2019-02-17T08:05:34.194Z,35.00
2019-02-17T08:06:37.715Z,34.00
2019-02-17T08:07:41.669Z,34.75
2019-02-17T08:08:44.894Z,31.50
2019-02-17T08:09:47.781Z,32.00
2019-02-17T08:10:52.806Z,35.75
2019-02-17T08:11:55.605Z,33.00
2019-02-17T08:12:59.292Z,35.75
2019-02-17T08:14:02.181Z,34.75
2019-02-17T08:15:07.228Z,35.50
2019-02-17T08:16:09.522Z,31.75
2019-02-17T08:17:17.488Z,32.25
2019-02-17T08:18:20.341Z,32.75
2019-02-17T08:19:23.504Z,29.50
2019-02-17T08:20:26.372Z,32.25
2019-02-17T08:21:29.212Z,31.25
2019-02-17T08:22:35.578Z,31.50
2019-02-17T08:23:38.407Z,26.50
2019-02-17T08:24:41.194Z,28.75
2019-02-17T08:25:44.250Z,30.50
2019-02-17T08:26:47.132Z,28.25
2019-02-17T08:27:50.022Z,29.00
2019-02-17T08:28:52.833Z,28.75
2019-02-17T08:29:55.646Z,27.00
2019-02-17T08:30:58.520Z,32.75
2019-02-17T08:32:01.629Z,31.50
2019-02-17T08:33:05.827Z,28.75
2019-02-17T08:34:09.151Z,27.75
2019-02-17T08:35:11.949Z,27.50
2019-02-17T08:36:14.735Z,30.50
2019-02-17T08:37:17.588Z,31.75
2019-02-17T08:38:23.488Z,30.50
2019-02-17T08:39:26.392Z,31.75
2019-02-17T08:40:29.199Z,27.50
2019-02-17T08:41:36.559Z,27.75
2019-02-17T08:42:39.386Z,31.75
2019-02-17T08:43:42.193Z,31.75
2019-02-17T08:44:51.967Z,30.25
2019-02-17T08:45:54.792Z,29.75
2019-02-17T08:46:59.361Z,31.75
2019-02-17T08:48:02.234Z,33.00
2019-02-17T08:49:05.057Z,28.75
2019-02-17T08:50:07.946Z,33.50
2019-02-17T08:51:11.162Z,35.75
2019-02-17T08:52:18.191Z,34.25
2019-02-17T08:53:23.714Z,33.00
2019-02-17T08:54:26.671Z,32.25
2019-02-17T08:55:29.520Z,31.75
2019-02-17T08:56:33.592Z,32.25
2019-02-17T08:57:37.954Z,32.75
2019-02-17T08:58:45.580Z,32.75
2019-02-17T08:59:48.408Z,34.25
2019-02-17T09:00:51.223Z,36.25
2019-02-17T09:01:54.022Z,36.00
2019-02-17T09:02:57.305Z,36.75
2019-02-17T09:04:02.352Z,34.75
2019-02-17T09:05:05.451Z,31.50
2019-02-17T09:06:08.345Z,32.50
2019-02-17T09:07:12.157Z,30.75
2019-02-17T09:08:14.936Z,31.25
2019-02-17T09:09:20.962Z,31.00
2019-02-17T09:10:24.073Z,32.75
2019-02-17T09:11:41.822Z,33.25
2019-02-17T09:12:47.081Z,34.75
2019-02-17T09:13:49.846Z,34.00
2019-02-17T09:14:52.673Z,33.50
2019-02-17T09:15:55.841Z,32.00
2019-02-17T09:16:58.630Z,30.75
2019-02-17T09:18:07.339Z,31.50
2019-02-17T09:19:10.165Z,30.75
2019-02-17T09:20:12.949Z,31.25
2019-02-17T09:21:15.862Z,31.00
2019-02-17T09:22:18.982Z,31.00
2019-02-17T09:23:21.800Z,30.50
2019-02-17T09:24:27.122Z,32.75
2019-02-17T09:25:29.913Z,33.00
2019-02-17T09:26:34.102Z,32.00
2019-02-17T09:27:36.905Z,31.25
2019-02-17T09:28:42.863Z,32.00
2019-02-17T09:29:45.713Z,33.00
2019-02-17T09:30:48.490Z,31.00
2019-02-17T09:32:16.407Z,32.75
2019-02-17T09:33:18.392Z,33.75
2019-02-17T09:34:21.192Z,34.00
2019-02-17T09:35:24.438Z,31.00
2019-02-17T09:36:27.327Z,33.00
2019-02-17T09:37:30.172Z,32.00
2019-02-17T09:38:34.978Z,32.00
2019-02-17T09:39:38.327Z,32.75
2019-02-17T09:40:44.942Z,33.00
2019-02-17T09:41:48.118Z,32.00
2019-02-17T09:42:52.298Z,32.00
2019-02-17T09:43:56.362Z,31.25
2019-02-17T09:44:59.213Z,32.25
2019-02-17T09:46:02.055Z,31.00
2019-02-17T09:47:05.052Z,29.75
2019-02-17T09:48:08.174Z,30.50
2019-02-17T09:49:16.025Z,28.00
2019-02-17T09:50:20.771Z,30.75
2019-02-17T09:51:23.588Z,30.75
2019-02-17T09:52:26.469Z,29.25
2019-02-17T09:53:29.241Z,30.75
2019-02-17T09:54:32.093Z,30.75
2019-02-17T09:55:34.873Z,30.75
2019-02-17T09:56:37.775Z,29.25
2019-02-17T09:57:40.585Z,27.75
2019-02-17T09:58:43.383Z,30.25
2019-02-17T09:59:46.530Z,29.25
2019-02-17T10:00:49.358Z,29.00
2019-02-17T10:01:53.579Z,27.75
2019-02-17T10:02:56.415Z,30.50
2019-02-17T10:05:33.744Z,28.25
2019-02-17T10:06:38.195Z,30.75
2019-02-17T10:07:41.046Z,31.25
2019-02-17T10:08:48.156Z,28.00
2019-02-17T10:09:48.684Z,30.75
2019-02-17T10:10:53.534Z,28.50
2019-02-17T10:11:56.723Z,28.50
2019-02-17T10:13:01.274Z,29.25
2019-02-17T10:14:04.389Z,30.00
2019-02-17T10:15:07.172Z,28.50
2019-02-17T10:16:09.989Z,32.75
2019-02-17T10:17:13.225Z,30.50
2019-02-17T10:18:22.088Z,30.00
2019-02-17T10:19:27.353Z,31.00
2019-02-17T10:20:30.146Z,30.00
2019-02-17T10:21:33.044Z,31.25
2019-02-17T10:22:40.225Z,29.75
2019-02-17T10:23:40.371Z,30.75
2019-02-17T10:24:43.487Z,31.25
2019-02-17T10:25:46.327Z,31.00
2019-02-17T10:26:53.201Z,31.50
2019-02-17T10:27:58.779Z,31.00
2019-02-17T10:29:01.650Z,31.00
2019-02-17T10:30:04.555Z,30.75
2019-02-17T10:31:07.882Z,27.75
2019-02-17T10:32:10.864Z,29.00
2019-02-17T10:33:16.153Z,29.00
2019-02-17T10:34:19.355Z,30.75
2019-02-17T10:35:23.533Z,28.50
2019-02-17T10:36:30.073Z,29.25
2019-02-17T10:37:33.268Z,31.25
2019-02-17T10:38:36.037Z,29.00
2019-02-17T10:39:38.876Z,31.50
2019-02-17T10:40:41.784Z,29.00
2019-02-17T10:41:46.773Z,30.00
2019-02-17T10:42:49.595Z,30.00
2019-02-17T10:43:52.661Z,30.00
2019-02-17T10:45:05.953Z,29.75
2019-02-17T10:46:12.346Z,30.00
2019-02-17T10:47:14.426Z,27.75
2019-02-17T10:48:20.050Z,25.50
2019-02-17T10:49:24.512Z,28.00
2019-02-17T10:50:31.912Z,28.00
2019-02-17T10:51:34.722Z,29.50
2019-02-17T10:52:37.569Z,28.75
2019-02-17T10:53:42.748Z,29.25
2019-02-17T10:54:46.015Z,28.75
2019-02-17T10:55:51.149Z,28.50
2019-02-17T10:56:57.225Z,32.75
2019-02-17T10:58:09.066Z,28.25
2019-02-17T10:59:07.494Z,23.75
2019-02-17T11:00:12.219Z,24.50
2019-02-17T11:01:15.324Z,24.50
2019-02-17T11:02:18.201Z,24.75
2019-02-17T11:03:21.352Z,21.50
2019-02-17T11:04:24.134Z,25.00
2019-02-17T11:05:26.961Z,26.25
2019-02-17T11:06:29.850Z,28.25
2019-02-17T11:07:37.366Z,25.00
2019-02-17T11:08:41.936Z,25.00
2019-02-17T11:09:45.034Z,23.75
2019-02-17T11:10:49.186Z,22.75
2019-02-17T11:11:52.102Z,22.50
2019-02-17T11:12:56.607Z,23.50
2019-02-17T11:14:02.207Z,20.00
2019-02-17T11:15:07.561Z,23.75
2019-02-17T11:16:10.838Z,20.25
2019-02-17T11:17:13.677Z,22.00
2019-02-17T11:18:16.568Z,24.75
2019-02-17T11:19:20.524Z,28.25
2019-02-17T11:20:27.891Z,27.25
2019-02-17T11:21:30.784Z,24.50
2019-02-17T11:22:34.576Z,19.50
2019-02-17T11:23:40.161Z,19.25
2019-02-17T11:24:42.957Z,19.00
2019-02-17T11:25:45.761Z,21.00
2019-02-17T11:26:51.105Z,19.00
2019-02-17T11:27:54.314Z,20.00
2019-02-17T11:28:57.189Z,20.75
2019-02-17T11:30:02.761Z,18.75
2019-02-17T11:42:47.565Z,18.00
2019-02-17T11:43:50.363Z,17.00
2019-02-17T11:44:57.317Z,18.25
2019-02-17T11:46:02.271Z,20.00
2019-02-17T11:47:07.323Z,20.00
2019-02-17T11:48:12.704Z,18.50
2019-02-17T11:49:23.332Z,18.25
2019-02-17T11:50:26.311Z,18.25
2019-02-17T11:51:30.154Z,17.00
2019-02-17T11:52:32.957Z,18.00
2019-02-17T11:53:35.753Z,18.00
2019-02-17T11:54:39.125Z,19.00
2019-02-17T11:55:42.406Z,18.25
2019-02-17T11:56:45.302Z,17.50
2019-02-17T11:57:53.323Z,17.50
2019-02-17T11:58:57.266Z,15.00
2019-02-17T12:00:00.631Z,14.75
2019-02-17T12:01:06.607Z,17.00
2019-02-17T12:02:09.453Z,18.50
2019-02-17T12:03:12.346Z,17.00
2019-02-17T12:04:15.423Z,17.00
2019-02-17T12:05:18.310Z,18.00
2019-02-17T12:06:21.100Z,17.75
2019-02-17T12:07:24.306Z,17.00
2019-02-17T12:08:27.073Z,17.00
2019-02-17T12:09:29.964Z,18.00
2019-02-17T12:10:32.818Z,17.00
2019-02-17T12:11:37.958Z,17.50
2019-02-17T12:12:40.812Z,15.50
2019-02-17T12:13:44.164Z,16.50
2019-02-17T12:14:46.964Z,18.00
2019-02-17T12:15:50.289Z,18.25
2019-02-17T12:16:57.593Z,17.75
2019-02-17T12:18:02.314Z,17.50
2019-02-17T12:19:05.141Z,16.50
2019-02-17T12:20:29.588Z,15.75
2019-02-17T12:22:06.291Z,16.75
2019-02-17T12:23:17.163Z,16.25
2019-02-17T12:24:21.228Z,15.00
2019-02-17T12:25:45.584Z,15.00
2019-02-17T12:27:00.025Z,15.00
2019-02-17T12:28:10.613Z,17.00
2019-02-17T12:29:22.844Z,17.00
2019-02-17T12:30:29.330Z,17.00
2019-02-17T12:31:35.730Z,15.75
2019-02-17T12:32:39.114Z,17.00
2019-02-17T12:33:45.743Z,19.75
2019-02-17T12:34:50.669Z,18.25
2019-02-17T12:35:53.472Z,16.50
2019-02-17T12:37:02.059Z,17.75
2019-02-17T12:38:05.469Z,16.25
2019-02-17T12:39:08.829Z,18.50
2019-02-17T12:40:12.211Z,17.25
2019-02-17T12:41:15.016Z,15.75
2019-02-17T12:42:17.850Z,17.00
2019-02-17T12:43:20.768Z,17.25
2019-02-17T12:44:23.624Z,18.00
2019-02-17T12:45:29.622Z,17.25
2019-02-17T12:46:40.073Z,16.75
2019-02-17T12:47:57.552Z,15.00
2019-02-17T12:48:53.684Z,13.50
2019-02-17T12:49:56.491Z,16.00
2019-02-17T12:51:00.207Z,16.25
2019-02-17T12:52:03.532Z,14.00
2019-02-17T12:53:24.472Z,16.25
2019-02-17T12:54:29.439Z,14.00
2019-02-17T12:55:31.884Z,12.50
2019-02-17T12:56:34.704Z,13.25
2019-02-17T12:57:37.500Z,13.00
2019-02-17T12:58:43.998Z,14.25
2019-02-17T12:59:47.386Z,13.75
2019-02-17T13:00:50.273Z,13.00
2019-02-17T13:01:53.398Z,12.50
2019-02-17T13:02:56.268Z,15.50
2019-02-17T13:04:00.170Z,12.50
2019-02-17T13:05:03.446Z,14.75
2019-02-17T13:06:07.452Z,14.00
2019-02-17T13:07:10.367Z,14.75
2019-02-17T13:08:13.219Z,13.25
2019-02-17T13:09:18.851Z,14.00
2019-02-17T13:10:21.645Z,12.50
2019-02-17T13:11:27.698Z,14.00
2019-02-17T13:12:30.586Z,13.00
2019-02-17T13:13:37.012Z,10.50
2019-02-17T13:14:40.280Z,13.25
2019-02-17T13:15:43.275Z,13.00
2019-02-17T13:16:46.321Z,11.50
2019-02-17T13:17:53.024Z,13.25
2019-02-17T13:19:02.142Z,13.00
2019-02-17T13:20:07.972Z,13.00
2019-02-17T13:21:11.103Z,12.50
2019-02-17T13:22:13.933Z,13.00
2019-02-17T13:23:17.136Z,12.75
2019-02-17T13:24:20.679Z,13.00
2019-02-17T13:25:23.852Z,12.00
2019-02-17T13:26:29.860Z,11.75
2019-02-17T13:27:32.726Z,11.75
2019-02-17T13:28:37.230Z,10.50
2019-02-17T13:29:40.408Z,13.00
2019-02-17T13:30:46.155Z,11.75
2019-02-17T13:31:49.019Z,13.00
2019-02-17T13:32:54.608Z,12.00
2019-02-17T13:34:01.980Z,12.00
2019-02-17T13:35:05.147Z,13.00
2019-02-17T13:36:08.465Z,12.00
2019-02-17T13:37:11.272Z,13.00
2019-02-17T13:38:14.064Z,11.75
2019-02-17T13:39:16.857Z,11.50
2019-02-17T13:40:19.723Z,12.25
2019-02-17T13:41:24.618Z,13.00
2019-02-17T13:42:28.103Z,11.00
2019-02-17T13:43:30.893Z,13.00
2019-02-17T13:44:35.887Z,11.75
2019-02-17T13:45:39.000Z,12.00
2019-02-17T13:46:41.797Z,12.75
2019-02-17T13:47:44.596Z,12.00
2019-02-17T13:48:47.796Z,12.25
2019-02-17T13:49:50.670Z,13.00
2019-02-17T13:50:53.598Z,12.75
2019-02-17T13:51:56.447Z,12.00
2019-02-17T13:53:11.304Z,13.00
2019-02-17T13:54:06.527Z,13.00
2019-02-17T13:55:09.891Z,13.00
2019-02-17T13:56:13.032Z,13.00
2019-02-17T13:57:15.937Z,12.00
2019-02-17T13:58:18.840Z,10.50
2019-02-17T13:59:21.638Z,13.25
2019-02-17T14:00:25.372Z,10.50
2019-02-17T14:01:28.790Z,12.25
2019-02-17T14:02:31.604Z,12.25
2019-02-17T14:03:34.739Z,11.50
2019-02-17T14:04:38.528Z,10.50
2019-02-17T14:05:41.463Z,10.00
2019-02-17T14:06:49.125Z,10.50
2019-02-17T14:07:53.531Z,12.50
2019-02-17T14:08:58.194Z,12.00
2019-02-17T14:10:01.044Z,14.00
2019-02-17T14:11:03.834Z,11.75
2019-02-17T14:12:06.713Z,15.50
2019-02-17T14:13:13.040Z,13.50
2019-02-17T14:14:16.375Z,12.75
2019-02-17T14:15:19.223Z,13.50